Time;durP1;ratioP1;P1;durP2;ratioP2;P2;SDS_P1;SDS_P2;PMS_P1;PMS_P2;Temp;Humidity;BMP_temperature;BMP_pressure;BME280_temperature;BME280_humidity;BME280_pressure;Samples;Min_cycle;Max_cycle;Signal;HPM_P1;HPM_P2
2021/03/27 00:02:10;;;;;;;31.67;17.27;;;7.10;97.30;;;;;;5036266;28;20941;-82
2021/03/27 00:04:51;;;;;;;42.00;18.30;;;7.10;97.30;;;;;;5053651;28;20394;-83
2021/03/27 00:07:34;;;;;;;43.60;20.50;;;7.20;97.30;;;;;;5035905;28;20508;-82
2021/03/27 00:10:26;;;;;;;38.10;18.50;;;7.40;97.30;;;;;;5036019;28;20406;-83
2021/03/27 00:13:25;;;;;;;36.37;18.77;;;7.60;97.30;;;;;;5035983;28;20407;-83
2021/03/27 00:16:01;;;;;;;32.67;16.93;;;7.70;97.30;;;;;;5036039;28;20399;-82
2021/03/27 00:18:46;;;;;;;33.23;16.97;;;7.90;97.30;;;;;;5053476;28;20430;-83
2021/03/27 00:21:42;;;;;;;34.70;17.50;;;7.90;97.30;;;;;;5035837;28;20480;-83
2021/03/27 00:24:26;;;;;;;38.23;16.57;;;7.90;97.30;;;;;;5035831;28;20833;-82
2021/03/27 00:27:06;;;;;;;35.50;18.40;;;7.90;97.30;;;;;;5035952;28;21002;-82
2021/03/27 00:29:44;;;;;;;32.17;16.27;;;8.00;97.30;;;;;;5047871;28;20414;-84
2021/03/27 00:32:18;;;;;;;31.87;17.47;;;8.00;97.30;;;;;;5064745;28;20471;-83
2021/03/27 00:34:49;;;;;;;28.13;15.10;;;8.10;97.30;;;;;;5044200;28;20473;-83
2021/03/27 00:37:20;;;;;;;29.73;15.00;;;8.10;97.30;;;;;;5045913;28;20492;-83
2021/03/27 00:39:50;;;;;;;30.10;15.97;;;8.10;97.30;;;;;;5050751;28;20414;-83
2021/03/27 00:42:20;;;;;;;30.13;15.80;;;8.10;97.30;;;;;;5050536;28;20509;-83
2021/03/27 00:44:52;;;;;;;32.23;16.70;;;8.10;97.30;;;;;;5050047;28;20425;-82
2021/03/27 00:47:23;;;;;;;25.93;15.03;;;8.00;97.30;;;;;;5048453;28;20464;-83
2021/03/27 00:50:19;;;;;;;31.80;16.47;;;8.00;97.30;;;;;;5047635;28;20460;-82
2021/03/27 00:52:49;;;;;;;31.10;16.70;;;7.90;97.30;;;;;;5048284;28;20402;-83
2021/03/27 00:55:19;;;;;;;29.17;15.27;;;8.00;97.30;;;;;;5048778;28;20425;-83
2021/03/27 00:57:55;;;;;;;28.50;16.00;;;8.00;97.30;;;;;;5047767;28;20442;-84
2021/03/27 01:00:38;;;;;;;24.20;14.90;;;8.00;97.30;;;;;;5046523;28;21027;-82
2021/03/27 01:03:08;;;;;;;25.03;13.70;;;8.10;97.30;;;;;;5036214;28;20788;-83
2021/03/27 01:05:35;;;;;;;26.60;14.10;;;8.10;97.30;;;;;;5036045;28;20497;-82
2021/03/27 01:08:03;;;;;;;29.10;14.73;;;8.10;97.30;;;;;;5053992;28;20452;-82
2021/03/27 01:10:43;;;;;;;32.40;15.70;;;8.10;97.30;;;;;;5049024;28;20473;-83
2021/03/27 01:13:13;;;;;;;31.67;14.70;;;8.10;97.30;;;;;;5059361;28;20628;-82
2021/03/27 01:15:49;;;;;;;24.03;13.63;;;8.00;97.30;;;;;;5058767;28;20426;-82
2021/03/27 01:18:30;;;;;;;33.03;15.50;;;7.90;97.30;;;;;;5053148;28;20434;-83
2021/03/27 01:21:01;;;;;;;35.13;16.00;;;7.90;97.30;;;;;;5045633;28;20421;-83
2021/03/27 01:23:28;;;;;;;30.73;16.97;;;7.90;97.30;;;;;;5058893;28;20402;-83
2021/03/27 01:26:03;;;;;;;36.83;17.90;;;8.00;97.30;;;;;;5036152;28;20939;-83
2021/03/27 01:29:26;;;;;;;34.70;15.60;;;8.00;97.30;;;;;;5034618;23;20948;-89
2021/03/27 01:32:36;;;;;;;;;;;;;;;;;;;;;
2021/03/27 01:36:02;;;;;;;;;;;;;;;;;;;;;
2021/03/27 01:38:40;;;;;;;;;;;;;;;;;;;;;
2021/03/27 01:41:38;;;;;;;29.93;15.10;;;8.00;97.30;;;;;;4934311;29;20816;-89
2021/03/27 01:44:37;;;;;;;30.10;15.87;;;8.00;97.30;;;;;;4934829;29;20439;-89
2021/03/27 01:47:30;;;;;;;29.63;15.97;;;8.00;97.30;;;;;;4989570;28;20465;-89
2021/03/27 01:50:33;;;;;;;27.93;14.70;;;8.00;97.30;;;;;;4994047;28;20420;-89
2021/03/27 01:53:11;;;;;;;29.43;14.67;;;8.00;97.30;;;;;;5000841;28;20417;-89
2021/03/27 01:55:41;;;;;;;23.83;15.00;;;8.10;97.30;;;;;;4994037;28;20420;-89
2021/03/27 01:58:19;;;;;;;27.63;14.20;;;8.10;97.30;;;;;;4992813;28;20441;-89
2021/03/27 02:00:48;;;;;;;26.00;15.07;;;8.10;97.30;;;;;;4993109;28;20456;-89
2021/03/27 02:03:30;;;;;;;25.23;14.37;;;8.10;97.30;;;;;;4993128;28;20424;-89
2021/03/27 02:06:06;;;;;;;24.00;14.80;;;8.10;97.30;;;;;;4993344;28;20421;-89
2021/03/27 02:09:19;;;;;;;30.03;15.90;;;8.10;97.30;;;;;;4993172;28;20960;-89
2021/03/27 02:11:56;;;;;;;27.53;14.47;;;8.10;97.30;;;;;;4981765;28;20428;-89
2021/03/27 02:14:34;;;;;;;25.67;14.47;;;8.10;97.30;;;;;;4993209;28;20421;-89
2021/03/27 02:17:13;;;;;;;24.60;14.40;;;8.00;97.30;;;;;;4993257;28;20445;-90
2021/03/27 02:19:47;;;;;;;28.47;15.17;;;8.00;97.30;;;;;;4992628;28;20401;-89
2021/03/27 02:22:25;;;;;;;27.23;14.60;;;8.00;97.30;;;;;;4993354;28;20425;-89
2021/03/27 02:24:53;;;;;;;31.50;15.23;;;8.10;97.30;;;;;;4993107;28;20413;-90
2021/03/27 02:27:40;;;;;;;28.43;15.30;;;8.10;97.30;;;;;;4992541;28;20520;-89
2021/03/27 02:30:17;;;;;;;29.23;15.43;;;8.10;97.30;;;;;;4992810;28;20818;-90
2021/03/27 02:33:10;;;;;;;26.83;15.73;;;8.10;97.30;;;;;;4992506;28;20474;-89
2021/03/27 02:35:47;;;;;;;29.37;17.20;;;8.00;97.30;;;;;;4993371;28;20488;-89
2021/03/27 02:38:24;;;;;;;28.03;14.73;;;8.00;97.30;;;;;;4993011;28;20441;-89
2021/03/27 02:41:02;;;;;;;26.20;15.70;;;8.00;97.30;;;;;;4996517;28;20500;-89
2021/03/27 02:43:38;;;;;;;24.00;14.83;;;8.00;97.30;;;;;;4996043;28;20417;-89
2021/03/27 02:46:43;;;;;;;22.07;14.83;;;7.90;97.30;;;;;;4996887;28;20423;-89
2021/03/27 02:49:26;;;;;;;27.40;15.40;;;7.90;97.30;;;;;;5015629;28;20518;-89
2021/03/27 02:51:58;;;;;;;26.70;13.93;;;7.90;97.30;;;;;;5016025;28;20400;-89
2021/03/27 02:54:58;;;;;;;25.07;12.87;;;7.90;97.30;;;;;;5015796;28;20404;-89
2021/03/27 02:57:57;;;;;;;27.50;13.30;;;7.90;97.30;;;;;;5016770;28;20816;-89
2021/03/27 03:00:53;;;;;;;26.20;14.10;;;7.90;97.30;;;;;;5015544;28;20396;-89
2021/03/27 03:03:48;;;;;;;22.13;14.70;;;8.00;97.30;;;;;;5015080;28;20491;-89
2021/03/27 03:06:27;;;;;;;28.10;13.37;;;8.00;97.30;;;;;;5016934;28;20411;-89
2021/03/27 03:09:05;;;;;;;33.33;13.93;;;8.10;97.30;;;;;;5015692;28;20994;-89
2021/03/27 03:11:44;;;;;;;25.73;13.47;;;8.20;97.30;;;;;;5015442;28;20403;-89
2021/03/27 03:14:15;;;;;;;24.37;13.03;;;8.20;97.30;;;;;;5015668;28;20400;-89
2021/03/27 03:17:14;;;;;;;23.87;13.37;;;8.30;97.30;;;;;;5015276;28;20408;-89
2021/03/27 03:19:52;;;;;;;30.40;12.63;;;8.30;97.30;;;;;;5015317;28;20412;-89
2021/03/27 03:22:38;;;;;;;25.97;12.97;;;8.30;97.30;;;;;;5015332;28;20415;-89
2021/03/27 03:25:21;;;;;;;25.00;12.63;;;8.30;97.30;;;;;;5020997;28;20416;-89
2021/03/27 03:27:59;;;;;;;24.60;12.43;;;8.20;97.30;;;;;;5019346;28;20481;-89
2021/03/27 03:30:48;;;;;;;23.13;12.40;;;8.20;97.30;;;;;;5019535;28;20465;-90
2021/03/27 03:33:19;;;;;;;22.30;11.83;;;8.20;97.30;;;;;;5018966;28;20408;-89
2021/03/27 03:35:51;;;;;;;23.87;12.70;;;8.30;97.30;;;;;;5019569;28;21102;-89
2021/03/27 03:38:28;;;;;;;22.57;13.00;;;8.30;97.30;;;;;;5018736;28;20478;-89
2021/03/27 03:41:13;;;;;;;27.30;13.87;;;8.30;97.30;;;;;;5019507;28;20473;-89
2021/03/27 03:44:08;;;;;;;22.87;11.17;;;8.30;97.30;;;;;;5018525;28;20935;-89
2021/03/27 03:47:02;;;;;;;24.60;11.60;;;8.20;97.30;;;;;;5018887;28;20419;-89
2021/03/27 03:49:44;;;;;;;22.00;12.23;;;8.20;97.30;;;;;;5018694;28;20473;-89
2021/03/27 03:52:27;;;;;;;22.77;11.90;;;8.20;97.30;;;;;;5018689;28;20430;-89
2021/03/27 03:55:22;;;;;;;20.27;11.10;;;8.20;97.30;;;;;;5019388;28;20415;-89
2021/03/27 03:58:02;;;;;;;21.40;11.63;;;8.20;97.30;;;;;;5036549;28;20458;-89
2021/03/27 04:00:56;;;;;;;24.53;13.00;;;8.10;97.30;;;;;;5019193;28;20437;-89
2021/03/27 04:03:51;;;;;;;21.73;12.30;;;8.00;97.30;;;;;;5018515;28;20419;-89
2021/03/27 04:06:22;;;;;;;20.63;12.57;;;7.90;97.30;;;;;;4982262;28;20479;-89
2021/03/27 04:09:15;;;;;;;22.00;12.07;;;7.90;97.30;;;;;;5018370;28;20471;-89
2021/03/27 04:11:56;;;;;;;24.37;10.93;;;7.90;97.30;;;;;;5018779;28;20410;-89
2021/03/27 04:14:29;;;;;;;22.73;13.17;;;7.90;97.30;;;;;;5018229;28;20403;-89
2021/03/27 04:17:12;;;;;;;19.03;11.70;;;7.90;97.30;;;;;;5018363;28;20497;-88
2021/03/27 04:19:45;;;;;;;23.83;13.37;;;7.90;97.30;;;;;;5036437;28;20426;-89
2021/03/27 04:22:11;;;;;;;29.30;12.43;;;7.90;97.30;;;;;;5018446;28;20502;-89
2021/03/27 04:25:02;;;;;;;29.27;11.20;;;7.80;97.30;;;;;;5018440;28;20927;-89
2021/03/27 04:27:31;;;;;;;22.30;12.17;;;7.90;97.30;;;;;;5014762;28;20775;-89
2021/03/27 04:30:06;;;;;;;24.33;10.90;;;7.90;97.30;;;;;;5014397;28;20420;-89
2021/03/27 04:33:02;;;;;;;25.77;11.70;;;7.90;97.30;;;;;;5015026;28;20465;-89
2021/03/27 04:35:45;;;;;;;19.63;10.97;;;7.90;97.30;;;;;;5015019;28;20488;-89
2021/03/27 04:38:33;;;;;;;24.07;12.03;;;7.80;97.30;;;;;;5014485;28;20443;-89
2021/03/27 04:41:33;;;;;;;21.03;11.50;;;7.90;97.30;;;;;;5015199;28;20416;-89
2021/03/27 04:44:25;;;;;;;22.40;11.67;;;7.90;97.30;;;;;;4989723;28;21183;-89
2021/03/27 04:46:56;;;;;;;23.77;11.73;;;7.80;97.30;;;;;;5014956;28;20912;-89
2021/03/27 04:49:41;;;;;;;23.10;12.13;;;7.80;97.30;;;;;;5014974;28;20392;-89
2021/03/27 04:52:35;;;;;;;20.43;11.47;;;7.70;97.30;;;;;;5015278;28;20408;-89
2021/03/27 04:55:09;;;;;;;24.17;11.50;;;7.70;97.30;;;;;;5015089;28;20420;-89
2021/03/27 04:58:14;;;;;;;27.70;12.53;;;7.60;97.30;;;;;;5014896;28;20518;-89
2021/03/27 05:00:51;;;;;;;29.27;12.30;;;7.60;97.30;;;;;;5014413;28;20412;-89
2021/03/27 05:03:36;;;;;;;28.47;12.67;;;7.60;97.30;;;;;;5014248;28;20396;-89
2021/03/27 05:06:23;;;;;;;20.57;11.70;;;7.60;97.30;;;;;;5016636;28;20820;-89
2021/03/27 05:09:18;;;;;;;26.70;12.20;;;7.60;97.30;;;;;;5014452;28;20463;-89
2021/03/27 05:12:03;;;;;;;20.43;11.70;;;7.60;97.30;;;;;;5015026;28;20412;-89
2021/03/27 05:15:09;;;;;;;18.40;11.23;;;7.70;97.30;;;;;;5015229;28;20415;-86
2021/03/27 05:21:54;;;;;;;;;;;;;;;;;;;;;
2021/03/27 05:24:59;;;;;;;18.93;10.90;;;7.90;97.30;;;;;;4962387;28;20425;-90
2021/03/27 05:27:51;;;;;;;18.20;10.97;;;8.00;97.30;;;;;;4961508;28;20476;-89
2021/03/27 05:30:39;;;;;;;24.90;11.63;;;8.10;97.30;;;;;;5009327;28;20436;-90
2021/03/27 05:33:26;;;;;;;27.10;11.63;;;8.20;97.30;;;;;;5030674;28;20416;-89
2021/03/27 05:35:58;;;;;;;20.20;11.63;;;8.30;97.30;;;;;;5011851;28;20423;-88
2021/03/27 05:38:38;;;;;;;24.93;11.67;;;8.40;97.30;;;;;;4996532;28;20528;-89
2021/03/27 05:41:25;;;;;;;27.43;12.97;;;8.50;97.30;;;;;;4995199;28;20437;-89
2021/03/27 05:44:28;;;;;;;29.87;12.43;;;8.60;97.30;;;;;;4994630;28;20439;-90
2021/03/27 05:47:31;;;;;;;23.73;11.63;;;8.60;97.30;;;;;;4995139;28;20876;-89
2021/03/27 05:50:25;;;;;;;19.60;10.53;;;8.70;97.30;;;;;;4994684;28;20440;-89
2021/03/27 05:53:09;;;;;;;23.70;11.13;;;8.80;97.30;;;;;;4994485;28;20925;-90
2021/03/27 05:55:55;;;;;;;21.50;10.50;;;8.80;97.30;;;;;;4994477;28;20413;-89
2021/03/27 05:58:39;;;;;;;27.53;11.20;;;8.80;97.30;;;;;;4994787;28;20794;-89
2021/03/27 06:01:23;;;;;;;19.80;10.87;;;8.90;97.30;;;;;;4996908;28;20424;-89
2021/03/27 06:04:02;;;;;;;19.43;10.30;;;9.00;97.30;;;;;;5002989;28;20424;-89
2021/03/27 06:09:32;;;;;;;19.33;10.00;;;9.50;97.30;;;;;;5073477;23;20588;-74
2021/03/27 06:12:22;;;;;;;17.47;9.50;;;9.80;97.30;;;;;;5036041;28;21039;-74
2021/03/27 06:15:13;;;;;;;22.30;10.17;;;10.10;96.70;;;;;;5031067;28;20990;-74
2021/03/27 06:18:11;;;;;;;16.00;9.17;;;10.30;96.00;;;;;;5053169;28;20910;-74
2021/03/27 06:20:47;;;;;;;17.33;9.13;;;10.70;95.00;;;;;;4998188;28;20465;-74
2021/03/27 06:23:34;;;;;;;20.03;9.63;;;10.80;94.50;;;;;;5025637;28;20533;-72
2021/03/27 06:26:44;;;;;;;18.33;9.20;;;10.80;94.90;;;;;;5025462;28;20471;-72
2021/03/27 06:29:20;;;;;;;19.50;9.13;;;10.90;94.50;;;;;;4993913;28;20422;-74
2021/03/27 06:32:04;;;;;;;16.93;9.53;;;11.00;94.10;;;;;;5024977;28;20434;-74
2021/03/27 06:35:02;;;;;;;14.53;9.13;;;11.00;94.40;;;;;;5043333;28;20400;-72
2021/03/27 06:40:19;;;;;;;18.43;8.60;;;11.10;94.40;;;;;;4318901;26;20491;-73
2021/03/27 06:43:09;;;;;;;16.27;8.20;;;11.10;95.30;;;;;;5034071;28;20521;-74
2021/03/27 06:45:59;;;;;;;16.27;6.63;;;11.00;95.90;;;;;;5049984;28;20895;-75
2021/03/27 06:48:37;;;;;;;12.60;7.43;;;11.00;96.00;;;;;;5033674;28;20466;-74
2021/03/27 06:51:37;;;;;;;15.50;8.30;;;11.00;96.30;;;;;;5033950;28;20437;-74
2021/03/27 06:54:03;;;;;;;13.80;7.17;;;11.10;96.40;;;;;;5050975;28;20405;-72
2021/03/27 06:56:39;;;;;;;13.77;7.73;;;11.10;96.30;;;;;;5051767;28;20402;-72
2021/03/27 06:59:19;;;;;;;14.27;6.27;;;11.10;96.50;;;;;;5034164;28;20172;-73
2021/03/27 07:02:03;;;;;;;14.57;6.70;;;11.20;96.30;;;;;;5024884;28;21252;-73
2021/03/27 07:05:06;;;;;;;9.47;5.07;;;11.30;96.00;;;;;;5033539;28;20410;-73
2021/03/27 07:07:43;;;;;;;9.20;3.63;;;11.20;94.80;;;;;;5048934;28;20450;-72
2021/03/27 07:10:28;;;;;;;5.67;3.30;;;10.90;93.90;;;;;;5033989;28;20398;-72
2021/03/27 07:13:49;;;;;;;8.27;3.37;;;10.70;95.50;;;;;;5047840;28;20402;-71
2021/03/27 07:16:44;;;;;;;4.87;3.27;;;10.50;95.90;;;;;;5031668;28;20772;-72
2021/03/27 07:19:31;;;;;;;7.03;3.67;;;10.30;97.30;;;;;;5051065;28;20410;-71
2021/03/27 07:22:27;;;;;;;8.03;4.30;;;10.10;97.30;;;;;;5034065;28;20810;-72
2021/03/27 07:25:14;;;;;;;2.80;1.87;;;9.90;97.30;;;;;;5050593;28;20414;-71
2021/03/27 07:27:58;;;;;;;2.27;1.73;;;9.60;97.30;;;;;;5049424;28;20479;-71
2021/03/27 07:30:44;;;;;;;1.70;1.43;;;9.20;97.30;;;;;;5031992;28;20505;-72
2021/03/27 07:33:34;;;;;;;14.87;1.53;;;8.90;97.30;;;;;;5048228;28;20786;-73
2021/03/27 07:36:19;;;;;;;2.87;1.47;;;8.70;97.30;;;;;;5031169;28;20414;-73
2021/03/27 07:39:03;;;;;;;1.90;1.70;;;8.50;97.30;;;;;;5032425;28;20457;-72
2021/03/27 07:41:56;;;;;;;2.97;1.93;;;8.20;97.30;;;;;;5032946;28;20828;-72
2021/03/27 07:44:35;;;;;;;2.30;1.80;;;8.10;97.30;;;;;;5034898;23;20564;-73
2021/03/27 07:47:04;;;;;;;2.50;1.90;;;8.00;97.30;;;;;;5063222;28;20481;-73
2021/03/27 07:49:39;;;;;;;2.57;1.80;;;8.00;97.30;;;;;;5036976;28;20514;-72
2021/03/27 07:52:43;;;;;;;4.00;1.87;;;7.90;97.30;;;;;;5029764;28;20456;-73
2021/03/27 07:55:27;;;;;;;2.80;2.07;;;7.90;97.30;;;;;;5033126;28;20457;-72
2021/03/27 07:58:15;;;;;;;3.40;2.20;;;7.90;97.30;;;;;;5050433;28;20426;-73
2021/03/27 08:01:00;;;;;;;3.17;2.00;;;7.90;97.30;;;;;;5034062;28;20466;-73
2021/03/27 08:03:47;;;;;;;3.40;2.40;;;8.00;97.30;;;;;;5051574;28;20453;-73
2021/03/27 08:06:21;;;;;;;3.73;2.57;;;7.90;97.30;;;;;;5051970;28;20556;-72
2021/03/27 08:09:28;;;;;;;4.53;2.37;;;8.00;97.30;;;;;;5033787;28;20457;-72
2021/03/27 08:12:17;;;;;;;3.43;2.70;;;7.90;97.30;;;;;;5034452;28;20426;-72
2021/03/27 08:15:08;;;;;;;5.17;3.20;;;7.90;97.30;;;;;;5020662;28;20462;-71
2021/03/27 08:18:08;;;;;;;5.80;2.67;;;7.90;97.30;;;;;;5033774;23;20624;-71
2021/03/27 08:20:37;;;;;;;5.23;2.60;;;8.00;97.30;;;;;;5031165;28;20458;-69
2021/03/27 08:23:06;;;;;;;3.20;2.20;;;8.10;97.30;;;;;;5039263;28;20439;-70
2021/03/27 08:25:56;;;;;;;3.30;2.40;;;8.20;97.30;;;;;;5026132;28;20430;-70
2021/03/27 08:28:40;;;;;;;4.60;3.10;;;8.20;97.30;;;;;;5038602;28;21094;-70
2021/03/27 08:31:20;;;;;;;4.73;2.80;;;8.10;97.30;;;;;;5039896;28;20438;-70
2021/03/27 08:33:46;;;;;;;3.00;2.37;;;8.00;97.30;;;;;;5027486;28;20433;-70
2021/03/27 08:36:14;;;;;;;4.80;2.97;;;8.10;97.30;;;;;;5029955;28;20418;-70
2021/03/27 08:39:18;;;;;;;4.93;2.60;;;8.20;97.30;;;;;;5022808;28;20633;-70
2021/03/27 08:42:02;;;;;;;8.03;2.70;;;8.20;97.30;;;;;;5032262;28;20435;-71
2021/03/27 08:45:01;;;;;;;3.53;2.33;;;8.20;97.30;;;;;;5045091;28;20525;-70
2021/03/27 08:48:09;;;;;;;3.67;2.63;;;8.20;97.00;;;;;;5050050;28;20483;-71
2021/03/27 08:51:16;;;;;;;5.13;3.20;;;8.60;96.40;;;;;;5048481;28;20962;-70
2021/03/27 08:54:17;;;;;;;3.30;2.73;;;8.90;95.40;;;;;;5020451;28;20476;-70
2021/03/27 08:57:00;;;;;;;5.80;2.70;;;9.20;95.10;;;;;;5033549;28;20417;-70
2021/03/27 08:59:44;;;;;;;6.73;2.77;;;9.30;94.40;;;;;;5032793;28;20429;-70
2021/03/27 09:02:55;;;;;;;3.90;2.53;;;9.50;94.10;;;;;;5049987;28;20851;-70
2021/03/27 09:05:48;;;;;;;5.03;2.53;;;9.40;93.20;;;;;;4962273;28;20415;-70
2021/03/27 09:08:23;;;;;;;3.10;2.20;;;9.30;94.10;;;;;;5032213;28;20465;-70
2021/03/27 09:11:13;;;;;;;3.73;2.67;;;9.50;94.00;;;;;;5050024;28;20479;-70
2021/03/27 09:13:53;;;;;;;3.53;2.63;;;9.50;93.70;;;;;;5033270;28;20509;-70
2021/03/27 09:16:41;;;;;;;2.07;1.80;;;9.30;93.10;;;;;;5050587;28;20393;-70
2021/03/27 09:19:18;;;;;;;4.10;2.30;;;9.30;93.20;;;;;;5050836;28;20494;-69
2021/03/27 09:22:16;;;;;;;3.63;1.83;;;9.50;92.00;;;;;;5050519;28;20931;-70
2021/03/27 09:24:50;;;;;;;2.10;1.90;;;9.70;91.40;;;;;;5049889;28;20395;-69
2021/03/27 09:27:28;;;;;;;5.67;2.13;;;10.00;90.50;;;;;;5050226;28;20482;-70
2021/03/27 09:30:23;;;;;;;1.97;1.90;;;10.10;90.10;;;;;;5050887;28;20458;-70
2021/03/27 09:33:09;;;;;;;2.43;1.80;;;10.20;89.90;;;;;;5033362;28;20816;-70
2021/03/27 09:35:46;;;;;;;3.53;2.50;;;10.10;89.00;;;;;;5054273;28;20406;-70
2021/03/27 09:38:38;;;;;;;10.87;2.73;;;10.10;89.30;;;;;;5034597;28;20512;-71
2021/03/27 09:41:13;;;;;;;4.50;2.30;;;10.50;87.60;;;;;;5032620;28;20439;-70
2021/03/27 09:44:00;;;;;;;2.10;1.97;;;10.70;86.70;;;;;;5051256;28;20464;-71
2021/03/27 09:46:40;;;;;;;4.00;2.00;;;10.90;84.50;;;;;;5050188;28;20417;-71
2021/03/27 09:49:37;;;;;;;4.23;2.60;;;11.00;84.00;;;;;;5053185;28;20449;-71
2021/03/27 09:52:21;;;;;;;3.03;2.20;;;11.00;83.70;;;;;;5036848;28;20818;-70
2021/03/27 09:54:57;;;;;;;4.97;2.50;;;10.60;84.30;;;;;;5036297;28;20440;-70
2021/03/27 09:57:26;;;;;;;4.77;2.50;;;10.70;84.30;;;;;;5036450;28;20965;-70
2021/03/27 10:00:19;;;;;;;3.37;2.10;;;10.90;84.50;;;;;;5036876;28;20440;-70
2021/03/27 10:03:15;;;;;;;5.03;2.70;;;11.10;82.90;;;;;;5036053;28;20499;-68
2021/03/27 10:06:05;;;;;;;3.60;2.23;;;11.30;82.20;;;;;;5035645;28;20430;-70
2021/03/27 10:09:07;;;;;;;3.43;2.37;;;11.50;80.80;;;;;;5050580;28;20450;-70
2021/03/27 10:11:36;;;;;;;3.83;2.40;;;11.30;81.90;;;;;;4948382;28;20505;-69
2021/03/27 10:14:15;;;;;;;3.10;2.50;;;11.20;81.20;;;;;;5036179;28;20446;-69
2021/03/27 10:16:48;;;;;;;5.50;2.77;;;10.90;82.50;;;;;;5053583;28;20417;-70
2021/03/27 10:19:17;;;;;;;2.90;2.80;;;10.80;83.80;;;;;;5036229;28;20549;-69
2021/03/27 10:22:24;;;;;;;3.10;2.60;;;10.50;84.50;;;;;;5035125;28;20464;-69
2021/03/27 10:25:15;;;;;;;4.90;2.60;;;10.30;85.20;;;;;;4991267;28;20430;-69
2021/03/27 10:28:11;;;;;;;14.70;5.77;;;10.20;85.80;;;;;;5032806;28;20450;-69
2021/03/27 10:31:01;;;;;;;3.97;2.40;;;10.30;86.10;;;;;;5015284;28;20495;-69
2021/03/27 10:33:36;;;;;;;4.00;2.50;;;10.30;85.40;;;;;;4996167;28;20495;-69
2021/03/27 10:36:12;;;;;;;2.77;1.90;;;10.70;84.80;;;;;;5014591;28;20506;-69
2021/03/27 10:39:01;;;;;;;3.10;1.60;;;11.00;82.50;;;;;;5015462;28;20451;-70
2021/03/27 10:41:57;;;;;;;3.23;1.60;;;10.80;79.50;;;;;;5015260;28;20454;-69
2021/03/27 10:44:49;;;;;;;9.40;2.10;;;10.50;78.90;;;;;;5033319;28;20747;-70
2021/03/27 10:47:24;;;;;;;3.17;1.70;;;10.30;79.10;;;;;;5043598;28;20438;-70
2021/03/27 10:49:55;;;;;;;2.70;1.70;;;10.20;79.70;;;;;;5035831;28;20398;-69
2021/03/27 10:52:36;;;;;;;2.80;1.70;;;10.30;80.30;;;;;;5034820;28;20434;-70
2021/03/27 10:55:30;;;;;;;2.73;1.90;;;10.60;80.60;;;;;;5035951;28;20425;-70
2021/03/27 10:58:25;;;;;;;4.13;2.13;;;10.70;80.10;;;;;;5034801;28;20418;-69
2021/03/27 11:01:28;;;;;;;5.93;1.50;;;10.80;80.70;;;;;;5051465;28;20969;-69
2021/03/27 11:04:14;;;;;;;4.07;2.07;;;10.80;80.30;;;;;;5053379;28;20969;-69
2021/03/27 11:07:00;;;;;;;2.57;1.80;;;10.50;80.90;;;;;;5034911;28;20433;-69
2021/03/27 11:09:39;;;;;;;6.10;1.90;;;10.30;81.60;;;;;;5035175;28;20464;-70
2021/03/27 11:12:20;;;;;;;3.00;1.60;;;10.20;82.50;;;;;;5035567;28;20488;-69
2021/03/27 11:15:04;;;;;;;2.73;1.90;;;10.50;81.90;;;;;;5035252;28;20810;-70
2021/03/27 11:17:57;;;;;;;4.50;1.77;;;10.90;81.30;;;;;;5034188;28;20468;-70
2021/03/27 11:20:44;;;;;;;2.30;1.60;;;11.40;79.10;;;;;;5052840;28;20409;-69
2021/03/27 11:23:32;;;;;;;3.77;1.70;;;11.60;77.90;;;;;;5034609;28;20398;-69
2021/03/27 11:26:23;;;;;;;3.20;1.70;;;11.70;77.40;;;;;;5034696;28;20418;-70
2021/03/27 11:29:27;;;;;;;2.70;1.70;;;11.70;76.60;;;;;;5034766;28;20488;-70
2021/03/27 11:32:01;;;;;;;5.67;2.10;;;11.80;76.70;;;;;;5034622;28;20461;-69
2021/03/27 11:34:45;;;;;;;3.63;2.80;;;11.90;76.70;;;;;;5052813;28;20409;-69
2021/03/27 11:37:26;;;;;;;5.00;2.03;;;11.80;75.90;;;;;;5034756;28;20418;-69
2021/03/27 11:40:14;;;;;;;3.40;1.60;;;12.00;75.90;;;;;;5051929;28;20413;-69
2021/03/27 11:42:53;;;;;;;3.00;1.60;;;12.00;75.20;;;;;;5052703;28;20442;-69
2021/03/27 11:45:33;;;;;;;6.00;1.73;;;11.90;74.80;;;;;;5052989;28;20906;-69
2021/03/27 11:48:01;;;;;;;4.40;1.90;;;12.00;74.70;;;;;;5033736;28;20454;-69
2021/03/27 11:50:36;;;;;;;3.47;1.80;;;12.40;75.00;;;;;;5034562;28;20418;-69
2021/03/27 11:53:34;;;;;;;4.57;1.77;;;12.30;74.90;;;;;;5034207;28;20725;-70
2021/03/27 11:56:28;;;;;;;2.03;1.60;;;12.30;75.00;;;;;;5031972;28;20422;-69
2021/03/27 12:02:37;;;;;;;3.87;1.83;;;12.40;74.90;;;;;;5051828;28;20425;-69
2021/03/27 12:05:24;;;;;;;3.07;1.70;;;12.20;76.00;;;;;;5034327;28;20829;-69
2021/03/27 12:08:20;;;;;;;2.43;1.70;;;12.10;75.50;;;;;;5052249;28;20962;-69
2021/03/27 12:11:06;;;;;;;3.77;1.80;;;11.70;75.70;;;;;;5033655;28;20439;-69
2021/03/27 12:14:02;;;;;;;4.77;1.80;;;11.90;75.70;;;;;;5051985;28;20519;-69
2021/03/27 12:16:39;;;;;;;7.13;2.07;;;11.60;74.50;;;;;;5038893;28;20429;-69
2021/03/27 12:19:37;;;;;;;2.10;1.70;;;11.50;74.30;;;;;;5033375;28;20831;-70
2021/03/27 12:22:22;;;;;;;2.50;1.53;;;11.40;74.20;;;;;;5052410;28;20422;-69
2021/03/27 12:25:28;;;;;;;3.07;1.63;;;11.40;73.70;;;;;;5051496;28;20430;-70
2021/03/27 12:27:53;;;;;;;5.80;1.77;;;11.30;73.90;;;;;;5032917;28;20847;-70
2021/03/27 12:30:59;;;;;;;7.03;1.97;;;10.50;81.10;;;;;;5029874;28;20434;-70
2021/03/27 12:33:55;;;;;;;2.03;1.40;;;9.10;90.50;;;;;;5028135;28;20606;-69
2021/03/27 12:36:57;;;;;;;3.20;1.50;;;7.80;97.00;;;;;;5032332;28;20449;-69
2021/03/27 12:39:40;;;;;;;2.23;1.40;;;7.20;97.30;;;;;;5001098;28;20411;-68
2021/03/27 12:42:21;;;;;;;2.90;1.47;;;6.90;97.30;;;;;;5013776;28;20430;-69
2021/03/27 12:44:53;;;;;;;2.33;1.83;;;6.50;97.30;;;;;;5014072;28;20494;-72
2021/03/27 12:47:57;;;;;;;6.60;1.37;;;6.20;97.30;;;;;;5031875;28;20971;-71
2021/03/27 12:50:31;;;;;;;2.00;1.90;;;6.10;97.30;;;;;;5031753;28;20896;-70
2021/03/27 12:53:24;;;;;;;2.87;1.60;;;6.00;97.30;;;;;;5032019;28;20876;-70
2021/03/27 12:56:15;;;;;;;1.63;1.43;;;6.10;97.30;;;;;;5020822;28;20437;-69
2021/03/27 12:59:18;;;;;;;2.33;1.40;;;6.10;97.30;;;;;;5025434;28;20426;-70
2021/03/27 13:01:44;;;;;;;1.40;1.30;;;6.20;97.30;;;;;;5018333;28;20462;-70
2021/03/27 13:04:16;;;;;;;4.00;2.23;;;6.10;97.30;;;;;;5027711;28;20411;-69
2021/03/27 13:07:01;;;;;;;3.00;1.60;;;6.10;97.30;;;;;;5051262;28;20166;-69
2021/03/27 13:10:04;;;;;;;1.67;1.57;;;6.10;97.30;;;;;;5051788;28;20420;-69
2021/03/27 13:12:54;;;;;;;2.03;1.50;;;6.20;97.30;;;;;;5033180;28;20446;-69
2021/03/27 13:15:41;;;;;;;1.60;1.50;;;6.10;97.30;;;;;;5051086;28;20766;-69
2021/03/27 13:18:16;;;;;;;1.40;1.30;;;6.00;97.30;;;;;;5051215;28;20465;-69
2021/03/27 13:20:48;;;;;;;2.30;1.50;;;6.10;97.30;;;;;;5051022;28;20516;-70
2021/03/27 13:23:20;;;;;;;1.97;1.70;;;6.20;97.30;;;;;;5032680;28;20424;-69
2021/03/27 13:26:06;;;;;;;4.17;1.57;;;6.30;97.30;;;;;;5051305;28;20395;-69
2021/03/27 13:28:40;;;;;;;2.70;1.40;;;6.70;97.30;;;;;;5050309;28;20441;-69
2021/03/27 13:31:26;;;;;;;3.20;1.63;;;6.80;97.30;;;;;;5048447;28;20490;-69
2021/03/27 13:34:30;;;;;;;2.80;1.53;;;7.10;97.30;;;;;;5045129;28;20410;-69
2021/03/27 13:37:05;;;;;;;2.20;1.63;;;7.20;97.20;;;;;;4978517;28;20513;-70
2021/03/27 13:39:52;;;;;;;3.83;2.10;;;7.00;96.50;;;;;;5028867;28;20399;-69
2021/03/27 13:42:34;;;;;;;3.50;2.20;;;7.10;96.80;;;;;;5011262;28;20895;-68
2021/03/27 13:45:36;;;;;;;2.90;1.93;;;7.20;96.30;;;;;;5017185;28;20473;-70
2021/03/27 13:48:41;;;;;;;4.33;1.93;;;7.20;95.30;;;;;;5022623;28;20485;-69
2021/03/27 13:51:34;;;;;;;9.63;3.60;;;7.20;95.30;;;;;;5022445;28;20446;-69
2021/03/27 13:54:30;;;;;;;5.50;1.80;;;7.30;95.50;;;;;;5031330;28;20402;-69
2021/03/27 13:57:31;;;;;;;2.50;2.20;;;7.30;95.20;;;;;;5032373;28;20403;-69
2021/03/27 14:00:14;;;;;;;3.33;1.83;;;7.30;96.30;;;;;;5011544;28;20406;-69
2021/03/27 14:02:49;;;;;;;2.40;2.20;;;7.40;97.30;;;;;;5032970;28;20410;-69
2021/03/27 14:05:18;;;;;;;3.00;2.30;;;7.50;97.30;;;;;;5032066;28;20410;-70
2021/03/27 14:08:17;;;;;;;1.97;1.47;;;8.00;97.30;;;;;;5050302;28;20457;-69
2021/03/27 14:10:54;;;;;;;2.33;1.90;;;8.50;95.20;;;;;;5032619;28;20441;-70
2021/03/27 14:13:35;;;;;;;5.03;2.50;;;8.80;94.50;;;;;;5015385;28;20501;-69
2021/03/27 14:16:35;;;;;;;5.10;2.37;;;9.00;95.10;;;;;;5012480;28;20484;-70
2021/03/27 14:19:10;;;;;;;3.17;2.10;;;9.10;92.50;;;;;;5040247;28;20500;-69
2021/03/27 14:21:38;;;;;;;3.17;1.60;;;9.70;92.70;;;;;;5051100;28;20429;-69
2021/03/27 14:24:35;;;;;;;4.20;2.50;;;9.40;91.20;;;;;;5049017;28;20437;-69
2021/03/27 14:27:21;;;;;;;3.80;2.67;;;9.00;92.50;;;;;;5021109;28;20433;-69
2021/03/27 14:29:48;;;;;;;4.57;2.50;;;9.00;92.80;;;;;;5048312;28;20402;-69
2021/03/27 14:32:38;;;;;;;6.20;2.20;;;9.20;92.60;;;;;;5014610;28;20437;-69
2021/03/27 14:35:04;;;;;;;5.67;2.73;;;9.80;90.40;;;;;;5024400;28;20423;-69
2021/03/27 14:37:36;;;;;;;3.83;2.20;;;9.60;90.80;;;;;;5063895;22;20555;-70